PWSweather.com
Personal Weather Stations
Station Observations
IPODRAVI2
Croatia, Trnovec BartoloveckiHR

CroatiaTrnovec BartoloveckiHR

Lat: 46.2947, Lon: 16.3989

Elevation: 535

Station Type: Davis Vantage Pro2 plus

http://www.pljusak.com/trnovec1/wx.html

High Low Average
Temperature 62.8°F17.1°F 45.6°F7.6°F 53.7°F12.1°F
Dew Point 44.8°F7.1°F 39.0°F3.9°F 42.0°F5.6°F
Winds 19.6 mph SW31.5 mph SW Calm Calm 7.8 mph 12.6 mph
Wind Gusts 32.2 mph51.8 mph -- 12.9 mph20.8 mph
Humidity 79% 50% 65%
Pressure 29.86 in1011.20 in 29.65 in1004.10 in -
Precipitation 0.00 in0.00 in - -
Hour Temp Dew Point Humidity Winds Wind Gusts Pressure Precip Precip Rate Daily Precip Total
12:00 AM 48.7°F9.3°C 39.7°F4.3°C 71% 1.2 mph WNW1.9 kmh WNW 3.5 mph5.6 kmh 29.85 in1010.8 mb - 0.00 in0.0 mm 0.00 in0.0 mm
12:10 AM 48.3°F9.1°C 39.3°F4.1°C 71% Calm Calm -- 29.85 in1010.8 mb - 0.00 in0.0 mm 0.00 in0.0 mm
12:15 AM 47.9°F8.8°C 39.3°F4.1°C 72% Calm Calm 3.5 mph5.6 kmh 29.86 in1011.2 mb - 0.00 in0.0 mm 0.00 in0.0 mm
12:20 AM 47.6°F8.7°C 39.4°F4.1°C 73% 1.2 mph WSW1.9 kmh WSW 3.5 mph5.6 kmh 29.86 in1011.2 mb - 0.00 in0.0 mm 0.00 in0.0 mm
12:25 AM 47.4°F8.6°C 39.2°F4.0°C 73% Calm Calm 1.2 mph1.9 kmh 29.86 in1011.2 mb - 0.00 in0.0 mm 0.00 in0.0 mm
12:30 AM 47.3°F8.5°C 39.4°F4.1°C 74% 1.2 mph WSW1.9 kmh WSW 1.2 mph1.9 kmh 29.86 in1011.2 mb - 0.00 in0.0 mm 0.00 in0.0 mm
12:35 AM 47.2°F8.4°C 39.3°F4.1°C 74% Calm Calm 1.2 mph1.9 kmh 29.85 in1010.8 mb - 0.00 in0.0 mm 0.00 in0.0 mm
12:40 AM 47.0°F8.3°C 39.1°F3.9°C 74% 1.2 mph WSW1.9 kmh WSW 3.5 mph5.6 kmh 29.85 in1010.8 mb - 0.00 in0.0 mm 0.00 in0.0 mm
12:45 AM 46.9°F8.3°C 39.4°F4.1°C 75% Calm Calm 3.5 mph5.6 kmh 29.85 in1010.8 mb - 0.00 in0.0 mm 0.00 in0.0 mm
12:50 AM 46.8°F8.2°C 39.3°F4.1°C 75% Calm Calm 2.3 mph3.7 kmh 29.85 in1010.8 mb - 0.00 in0.0 mm 0.00 in0.0 mm
12:55 AM 46.7°F8.2°C 39.2°F4.0°C 75% 1.2 mph SW1.9 kmh SW 3.5 mph5.6 kmh 29.85 in1010.8 mb - 0.00 in0.0 mm 0.00 in0.0 mm
01:00 AM 46.6°F8.1°C 39.1°F3.9°C 75% Calm Calm 1.2 mph1.9 kmh 29.85 in1010.8 mb - 0.00 in0.0 mm 0.00 in0.0 mm
01:10 AM 46.5°F8.1°C 39.3°F4.1°C 76% Calm Calm 2.3 mph3.7 kmh 29.85 in1010.8 mb - 0.00 in0.0 mm 0.00 in0.0 mm
01:15 AM 46.3°F7.9°C 39.1°F3.9°C 76% 2.3 mph WSW3.7 kmh WSW 4.6 mph7.4 kmh 29.85 in1010.8 mb - 0.00 in0.0 mm 0.00 in0.0 mm
01:20 AM 46.2°F7.9°C 39.1°F3.9°C 76% 2.3 mph SW3.7 kmh SW 3.5 mph5.6 kmh 29.85 in1010.8 mb - 0.00 in0.0 mm 0.00 in0.0 mm
01:25 AM 46.1°F7.8°C 39.0°F3.9°C 76% 1.2 mph W1.9 kmh W 8.1 mph13.0 kmh 29.85 in1010.8 mb - 0.00 in0.0 mm 0.00 in0.0 mm
01:30 AM 46.1°F7.8°C 39.0°F3.9°C 76% Calm Calm 2.3 mph3.7 kmh 29.85 in1010.8 mb - 0.00 in0.0 mm 0.00 in0.0 mm
01:35 AM 46.2°F7.9°C 39.1°F3.9°C 76% 2.3 mph SSW3.7 kmh SSW 5.8 mph9.3 kmh 29.85 in1010.8 mb - 0.00 in0.0 mm 0.00 in0.0 mm
01:40 AM 46.2°F7.9°C 39.1°F3.9°C 76% 3.5 mph SW5.6 kmh SW 4.6 mph7.4 kmh 29.85 in1010.8 mb - 0.00 in0.0 mm 0.00 in0.0 mm
01:45 AM 46.2°F7.9°C 39.4°F4.1°C 77% 2.3 mph SW3.7 kmh SW 4.6 mph7.4 kmh 29.84 in1010.5 mb - 0.00 in0.0 mm 0.00 in0.0 mm
01:50 AM 46.2°F7.9°C 39.4°F4.1°C 77% 3.5 mph SW5.6 kmh SW 6.9 mph11.1 kmh 29.84 in1010.5 mb - 0.00 in0.0 mm 0.00 in0.0 mm
01:55 AM 46.2°F7.9°C 39.4°F4.1°C 77% 3.5 mph SSW5.6 kmh SSW 6.9 mph11.1 kmh 29.83 in1010.2 mb - 0.00 in0.0 mm 0.00 in0.0 mm
02:00 AM 46.6°F8.1°C 39.7°F4.3°C 77% 6.9 mph SW11.1 kmh SW 11.5 mph18.5 kmh 29.82 in1009.8 mb - 0.00 in0.0 mm 0.00 in0.0 mm
02:10 AM 47.5°F8.6°C 39.9°F4.4°C 75% 4.6 mph SW7.4 kmh SW 10.4 mph16.7 kmh 29.83 in1010.2 mb - 0.00 in0.0 mm 0.00 in0.0 mm
02:15 AM 47.7°F8.7°C 40.1°F4.5°C 75% 4.6 mph SW7.4 kmh SW 6.9 mph11.1 kmh 29.83 in1010.2 mb - 0.00 in0.0 mm 0.00 in0.0 mm
02:20 AM 47.7°F8.7°C 40.1°F4.5°C 75% 2.3 mph W3.7 kmh W 3.5 mph5.6 kmh 29.83 in1010.2 mb - 0.00 in0.0 mm 0.00 in0.0 mm
02:25 AM 47.6°F8.7°C 40.1°F4.5°C 75% 2.3 mph W3.7 kmh W 3.5 mph5.6 kmh 29.84 in1010.5 mb - 0.00 in0.0 mm 0.00 in0.0 mm
02:30 AM 47.6°F8.7°C 40.1°F4.5°C 75% 1.2 mph W1.9 kmh W 3.5 mph5.6 kmh 29.84 in1010.5 mb - 0.00 in0.0 mm 0.00 in0.0 mm
02:35 AM 47.6°F8.7°C 40.1°F4.5°C 75% 1.2 mph WNW1.9 kmh WNW 2.3 mph3.7 kmh 29.84 in1010.5 mb - 0.00 in0.0 mm 0.00 in0.0 mm
02:40 AM 47.4°F8.6°C 39.9°F4.4°C 75% 1.2 mph SW1.9 kmh SW 2.3 mph3.7 kmh 29.84 in1010.5 mb - 0.00 in0.0 mm 0.00 in0.0 mm
02:45 AM 47.3°F8.5°C 39.8°F4.3°C 75% Calm Calm -- 29.84 in1010.5 mb - 0.00 in0.0 mm 0.00 in0.0 mm
02:50 AM 47.1°F8.4°C 39.6°F4.2°C 75% Calm Calm -- 29.84 in1010.5 mb - 0.00 in0.0 mm 0.00 in0.0 mm
02:55 AM 46.9°F8.3°C 39.7°F4.3°C 76% Calm Calm 2.3 mph3.7 kmh 29.84 in1010.5 mb - 0.00 in0.0 mm 0.00 in0.0 mm
03:00 AM 46.7°F8.2°C 39.5°F4.2°C 76% Calm Calm -- 29.84 in1010.5 mb - 0.00 in0.0 mm 0.00 in0.0 mm
03:10 AM 46.6°F8.1°C 39.7°F4.3°C 77% Calm Calm -- 29.84 in1010.5 mb - 0.00 in0.0 mm 0.00 in0.0 mm
03:15 AM 46.5°F8.1°C 39.7°F4.3°C 77% 1.2 mph S1.9 kmh S 4.6 mph7.4 kmh 29.84 in1010.5 mb - 0.00 in0.0 mm 0.00 in0.0 mm
03:20 AM 46.7°F8.2°C 39.9°F4.4°C 77% 2.3 mph S3.7 kmh S 3.5 mph5.6 kmh 29.84 in1010.5 mb - 0.00 in0.0 mm 0.00 in0.0 mm
03:25 AM 46.8°F8.2°C 39.6°F4.2°C 76% 3.5 mph SSW5.6 kmh SSW 6.9 mph11.1 kmh 29.84 in1010.5 mb - 0.00 in0.0 mm 0.00 in0.0 mm
03:30 AM 47.0°F8.3°C 39.8°F4.3°C 76% 3.5 mph SW5.6 kmh SW 6.9 mph11.1 kmh 29.84 in1010.5 mb - 0.00 in0.0 mm 0.00 in0.0 mm
03:35 AM 47.0°F8.3°C 39.8°F4.3°C 76% 2.3 mph SW3.7 kmh SW 4.6 mph7.4 kmh 29.84 in1010.5 mb - 0.00 in0.0 mm 0.00 in0.0 mm
03:40 AM 46.9°F8.3°C 39.7°F4.3°C 76% 1.2 mph NNW1.9 kmh NNW 2.3 mph3.7 kmh 29.84 in1010.5 mb - 0.00 in0.0 mm 0.00 in0.0 mm
03:45 AM 46.7°F8.2°C 39.5°F4.2°C 76% Calm Calm -- 29.84 in1010.5 mb - 0.00 in0.0 mm 0.00 in0.0 mm
03:50 AM 46.4°F8.0°C 39.6°F4.2°C 77% Calm Calm -- 29.84 in1010.5 mb - 0.00 in0.0 mm 0.00 in0.0 mm
03:55 AM 46.2°F7.9°C 39.4°F4.1°C 77% 1.2 mph S1.9 kmh S 1.2 mph1.9 kmh 29.84 in1010.5 mb - 0.00 in0.0 mm 0.00 in0.0 mm
04:00 AM 46.0°F7.8°C 39.5°F4.2°C 78% 1.2 mph SW1.9 kmh SW 3.5 mph5.6 kmh 29.84 in1010.5 mb - 0.00 in0.0 mm 0.00 in0.0 mm
04:10 AM 46.1°F7.8°C 39.6°F4.2°C 78% Calm Calm 2.3 mph3.7 kmh 29.84 in1010.5 mb - 0.00 in0.0 mm 0.00 in0.0 mm
04:15 AM 45.9°F7.7°C 39.5°F4.2°C 78% 2.3 mph WSW3.7 kmh WSW 3.5 mph5.6 kmh 29.84 in1010.5 mb - 0.00 in0.0 mm 0.00 in0.0 mm
04:20 AM 45.7°F7.6°C 39.2°F4.0°C 78% 2.3 mph WSW3.7 kmh WSW 3.5 mph5.6 kmh 29.85 in1010.8 mb - 0.00 in0.0 mm 0.00 in0.0 mm
04:25 AM 45.6°F7.6°C 39.1°F3.9°C 78% 3.5 mph WSW5.6 kmh WSW 5.8 mph9.3 kmh 29.85 in1010.8 mb - 0.00 in0.0 mm 0.00 in0.0 mm
04:30 AM 46.0°F7.8°C 39.5°F4.2°C 78% 3.5 mph WSW5.6 kmh WSW 3.5 mph5.6 kmh 29.85 in1010.8 mb - 0.00 in0.0 mm 0.00 in0.0 mm
04:35 AM 46.4°F8.0°C 39.6°F4.2°C 77% 4.6 mph WSW7.4 kmh WSW 6.9 mph11.1 kmh 29.85 in1010.8 mb - 0.00 in0.0 mm 0.00 in0.0 mm
04:40 AM 46.6°F8.1°C 39.8°F4.3°C 77% 4.6 mph SW7.4 kmh SW 8.1 mph13.0 kmh 29.84 in1010.5 mb - 0.00 in0.0 mm 0.00 in0.0 mm
04:45 AM 46.9°F8.3°C 39.7°F4.3°C 76% 8.1 mph WSW13.0 kmh WSW 18.4 mph29.6 kmh 29.84 in1010.5 mb - 0.00 in0.0 mm 0.00 in0.0 mm
04:50 AM 47.5°F8.6°C 39.9°F4.4°C 75% 5.8 mph SW9.3 kmh SW 15.0 mph24.1 kmh 29.84 in1010.5 mb - 0.00 in0.0 mm 0.00 in0.0 mm
04:55 AM 47.6°F8.7°C 40.1°F4.5°C 75% 6.9 mph SW11.1 kmh SW 11.5 mph18.5 kmh 29.84 in1010.5 mb - 0.00 in0.0 mm 0.00 in0.0 mm
05:00 AM 47.3°F8.5°C 40.1°F4.5°C 76% 5.8 mph WSW9.3 kmh WSW 11.5 mph18.5 kmh 29.84 in1010.5 mb - 0.00 in0.0 mm 0.00 in0.0 mm
05:10 AM 46.9°F8.3°C 40.1°F4.5°C 77% 3.5 mph SW5.6 kmh SW 5.8 mph9.3 kmh 29.84 in1010.5 mb - 0.00 in0.0 mm 0.00 in0.0 mm
05:15 AM 46.7°F8.2°C 39.9°F4.4°C 77% 1.2 mph W1.9 kmh W 2.3 mph3.7 kmh 29.85 in1010.8 mb - 0.00 in0.0 mm 0.00 in0.0 mm
05:20 AM 46.4°F8.0°C 39.9°F4.4°C 78% 1.2 mph WSW1.9 kmh WSW 3.5 mph5.6 kmh 29.85 in1010.8 mb - 0.00 in0.0 mm 0.00 in0.0 mm
05:25 AM 46.2°F7.9°C 39.7°F4.3°C 78% 2.3 mph SSW3.7 kmh SSW 4.6 mph7.4 kmh 29.85 in1010.8 mb - 0.00 in0.0 mm 0.00 in0.0 mm
05:30 AM 46.1°F7.8°C 39.9°F4.4°C 79% 1.2 mph W1.9 kmh W 1.2 mph1.9 kmh 29.85 in1010.8 mb - 0.00 in0.0 mm 0.00 in0.0 mm
05:35 AM 46.0°F7.8°C 39.9°F4.4°C 79% Calm Calm 2.3 mph3.7 kmh 29.85 in1010.8 mb - 0.00 in0.0 mm 0.00 in0.0 mm
05:40 AM 46.0°F7.8°C 39.8°F4.3°C 79% 1.2 mph SW1.9 kmh SW 2.3 mph3.7 kmh 29.85 in1010.8 mb - 0.00 in0.0 mm 0.00 in0.0 mm
05:45 AM 46.1°F7.8°C 39.9°F4.4°C 79% 1.2 mph SW1.9 kmh SW 3.5 mph5.6 kmh 29.85 in1010.8 mb - 0.00 in0.0 mm 0.00 in0.0 mm
05:50 AM 46.2°F7.9°C 40.0°F4.4°C 79% 1.2 mph SSW1.9 kmh SSW 3.5 mph5.6 kmh 29.85 in1010.8 mb - 0.00 in0.0 mm 0.00 in0.0 mm
05:55 AM 46.1°F7.8°C 39.9°F4.4°C 79% 2.3 mph SW3.7 kmh SW 3.5 mph5.6 kmh 29.85 in1010.8 mb - 0.00 in0.0 mm 0.00 in0.0 mm
06:10 AM 46.0°F7.8°C 39.9°F4.4°C 79% 3.5 mph SW5.6 kmh SW 6.9 mph11.1 kmh 29.85 in1010.8 mb - 0.00 in0.0 mm 0.00 in0.0 mm
06:15 AM 46.4°F8.0°C 40.2°F4.6°C 79% 3.5 mph SW5.6 kmh SW 5.8 mph9.3 kmh 29.85 in1010.8 mb - 0.00 in0.0 mm 0.00 in0.0 mm
06:25 AM 46.5°F8.1°C 40.0°F4.4°C 78% 3.5 mph SW5.6 kmh SW 5.8 mph9.3 kmh 29.85 in1010.8 mb - 0.00 in0.0 mm 0.00 in0.0 mm
06:30 AM 46.7°F8.2°C 40.2°F4.6°C 78% 2.3 mph SW3.7 kmh SW 4.6 mph7.4 kmh 29.85 in1010.8 mb - 0.00 in0.0 mm 0.00 in0.0 mm
06:35 AM 46.7°F8.2°C 40.2°F4.6°C 78% 2.3 mph SSW3.7 kmh SSW 5.8 mph9.3 kmh 29.85 in1010.8 mb - 0.00 in0.0 mm 0.00 in0.0 mm
06:40 AM 46.6°F8.1°C 40.1°F4.5°C 78% 4.6 mph SW7.4 kmh SW 6.9 mph11.1 kmh 29.84 in1010.5 mb - 0.00 in0.0 mm 0.00 in0.0 mm
06:55 AM 47.0°F8.3°C 40.5°F4.7°C 78% 5.8 mph SW9.3 kmh SW 9.2 mph14.8 kmh 29.84 in1010.5 mb - 0.00 in0.0 mm 0.00 in0.0 mm
07:00 AM 47.1°F8.4°C 40.6°F4.8°C 78% 5.8 mph SW9.3 kmh SW 9.2 mph14.8 kmh 29.84 in1010.5 mb - 0.00 in0.0 mm 0.00 in0.0 mm
07:10 AM 47.0°F8.3°C 40.5°F4.7°C 78% 3.5 mph SW5.6 kmh SW 4.6 mph7.4 kmh 29.85 in1010.8 mb - 0.00 in0.0 mm 0.00 in0.0 mm
07:15 AM 47.1°F8.4°C 40.6°F4.8°C 78% 3.5 mph SW5.6 kmh SW 5.8 mph9.3 kmh 29.85 in1010.8 mb - 0.00 in0.0 mm 0.00 in0.0 mm
07:20 AM 47.2°F8.4°C 40.7°F4.8°C 78% 3.5 mph SW5.6 kmh SW 6.9 mph11.1 kmh 29.85 in1010.8 mb - 0.00 in0.0 mm 0.00 in0.0 mm
07:25 AM 47.2°F8.4°C 40.7°F4.8°C 78% 1.2 mph W1.9 kmh W 1.2 mph1.9 kmh 29.85 in1010.8 mb - 0.00 in0.0 mm 0.00 in0.0 mm
07:30 AM 47.1°F8.4°C 40.6°F4.8°C 78% Calm Calm -- 29.85 in1010.8 mb - 0.00 in0.0 mm 0.00 in0.0 mm
07:35 AM 47.0°F8.3°C 40.5°F4.7°C 78% Calm Calm 2.3 mph3.7 kmh 29.85 in1010.8 mb - 0.00 in0.0 mm 0.00 in0.0 mm
07:40 AM 46.8°F8.2°C 40.6°F4.8°C 79% 2.3 mph SW3.7 kmh SW 3.5 mph5.6 kmh 29.85 in1010.8 mb - 0.00 in0.0 mm 0.00 in0.0 mm
07:45 AM 46.9°F8.3°C 40.7°F4.8°C 79% 1.2 mph SW1.9 kmh SW 3.5 mph5.6 kmh 29.85 in1010.8 mb - 0.00 in0.0 mm 0.00 in0.0 mm
07:50 AM 47.0°F8.3°C 40.8°F4.9°C 79% 3.5 mph SW5.6 kmh SW 3.5 mph5.6 kmh 29.85 in1010.8 mb - 0.00 in0.0 mm 0.00 in0.0 mm
07:55 AM 47.3°F8.5°C 40.8°F4.9°C 78% 2.3 mph SW3.7 kmh SW 3.5 mph5.6 kmh 29.85 in1010.8 mb - 0.00 in0.0 mm 0.00 in0.0 mm
08:00 AM 47.7°F8.7°C 41.1°F5.1°C 78% 3.5 mph SW5.6 kmh SW 3.5 mph5.6 kmh 29.85 in1010.8 mb - 0.00 in0.0 mm 0.00 in0.0 mm
08:10 AM 48.7°F9.3°C 41.5°F5.3°C 76% 4.6 mph SW7.4 kmh SW 6.9 mph11.1 kmh 29.85 in1010.8 mb - 0.00 in0.0 mm 0.00 in0.0 mm
08:15 AM 49.3°F9.6°C 41.7°F5.4°C 75% 3.5 mph SW5.6 kmh SW 11.5 mph18.5 kmh 29.85 in1010.8 mb - 0.00 in0.0 mm 0.00 in0.0 mm
08:20 AM 49.9°F9.9°C 42.0°F5.6°C 74% 5.8 mph SW9.3 kmh SW 11.5 mph18.5 kmh 29.85 in1010.8 mb - 0.00 in0.0 mm 0.00 in0.0 mm
08:25 AM 51.0°F10.6°C 43.0°F6.1°C 74% 5.8 mph SW9.3 kmh SW 8.1 mph13.0 kmh 29.85 in1010.8 mb - 0.00 in0.0 mm 0.00 in0.0 mm
08:30 AM 51.6°F10.9°C 42.5°F5.8°C 71% 4.6 mph SW7.4 kmh SW 9.2 mph14.8 kmh 29.85 in1010.8 mb - 0.00 in0.0 mm 0.00 in0.0 mm
08:35 AM 51.9°F11.1°C 42.8°F6.0°C 71% 3.5 mph SW5.6 kmh SW 8.1 mph13.0 kmh 29.85 in1010.8 mb - 0.00 in0.0 mm 0.00 in0.0 mm
08:40 AM 52.7°F11.5°C 42.8°F6.0°C 69% 5.8 mph SW9.3 kmh SW 8.1 mph13.0 kmh 29.85 in1010.8 mb - 0.00 in0.0 mm 0.00 in0.0 mm
08:45 AM 52.9°F11.6°C 43.0°F6.1°C 69% 5.8 mph SW9.3 kmh SW 8.1 mph13.0 kmh 29.85 in1010.8 mb - 0.00 in0.0 mm 0.00 in0.0 mm
08:50 AM 53.0°F11.7°C 43.1°F6.2°C 69% 3.5 mph SW5.6 kmh SW 8.1 mph13.0 kmh 29.85 in1010.8 mb - 0.00 in0.0 mm 0.00 in0.0 mm
08:55 AM 52.8°F11.6°C 42.9°F6.1°C 69% 2.3 mph SW3.7 kmh SW 5.8 mph9.3 kmh 29.85 in1010.8 mb - 0.00 in0.0 mm 0.00 in0.0 mm
09:00 AM 53.0°F11.7°C 43.1°F6.2°C 69% 4.6 mph SW7.4 kmh SW 6.9 mph11.1 kmh 29.85 in1010.8 mb - 0.00 in0.0 mm 0.00 in0.0 mm
09:10 AM 54.6°F12.6°C 43.9°F6.6°C 67% 3.5 mph SW5.6 kmh SW 6.9 mph11.1 kmh 29.85 in1010.8 mb - 0.00 in0.0 mm 0.00 in0.0 mm
09:15 AM 55.1°F12.8°C 43.9°F6.6°C 66% 4.6 mph SW7.4 kmh SW 4.6 mph7.4 kmh 29.85 in1010.8 mb - 0.00 in0.0 mm 0.00 in0.0 mm
09:20 AM 55.5°F13.1°C 44.0°F6.7°C 65% 5.8 mph SW9.3 kmh SW 10.4 mph16.7 kmh 29.85 in1010.8 mb - 0.00 in0.0 mm 0.00 in0.0 mm
09:25 AM 56.1°F13.4°C 43.2°F6.2°C 62% 5.8 mph WSW9.3 kmh WSW 15.0 mph24.1 kmh 29.85 in1010.8 mb - 0.00 in0.0 mm 0.00 in0.0 mm
09:30 AM 56.2°F13.4°C 43.3°F6.3°C 62% 6.9 mph WSW11.1 kmh WSW 10.4 mph16.7 kmh 29.85 in1010.8 mb - 0.00 in0.0 mm 0.00 in0.0 mm
09:35 AM 56.4°F13.6°C 43.5°F6.4°C 62% 6.9 mph SW11.1 kmh SW 9.2 mph14.8 kmh 29.85 in1010.8 mb - 0.00 in0.0 mm 0.00 in0.0 mm
09:40 AM 56.6°F13.7°C 43.3°F6.3°C 61% 4.6 mph WSW7.4 kmh WSW 8.1 mph13.0 kmh 29.85 in1010.8 mb - 0.00 in0.0 mm 0.00 in0.0 mm
09:45 AM 56.7°F13.7°C 43.0°F6.1°C 60% 8.1 mph SW13.0 kmh SW 10.4 mph16.7 kmh 29.85 in1010.8 mb - 0.00 in0.0 mm 0.00 in0.0 mm
09:50 AM 56.7°F13.7°C 43.0°F6.1°C 60% 4.6 mph SW7.4 kmh SW 11.5 mph18.5 kmh 29.85 in1010.8 mb - 0.00 in0.0 mm 0.00 in0.0 mm
09:55 AM 56.8°F13.8°C 43.5°F6.4°C 61% 5.8 mph SW9.3 kmh SW 8.1 mph13.0 kmh 29.85 in1010.8 mb - 0.00 in0.0 mm 0.00 in0.0 mm
10:10 AM 58.0°F14.4°C 44.2°F6.8°C 60% 5.8 mph SW9.3 kmh SW 11.5 mph18.5 kmh 29.84 in1010.5 mb - 0.00 in0.0 mm 0.00 in0.0 mm
10:15 AM 58.6°F14.8°C 43.9°F6.6°C 58% 8.1 mph SW13.0 kmh SW 9.2 mph14.8 kmh 29.85 in1010.8 mb - 0.00 in0.0 mm 0.00 in0.0 mm
10:20 AM 59.1°F15.1°C 43.9°F6.6°C 57% 9.2 mph WSW14.8 kmh WSW 16.1 mph25.9 kmh 29.85 in1010.8 mb - 0.00 in0.0 mm 0.00 in0.0 mm
10:25 AM 59.3°F15.2°C 44.5°F6.9°C 58% 4.6 mph WSW7.4 kmh WSW 11.5 mph18.5 kmh 29.84 in1010.5 mb - 0.00 in0.0 mm 0.00 in0.0 mm
10:30 AM 59.7°F15.4°C 43.9°F6.6°C 56% 5.8 mph SW9.3 kmh SW 17.3 mph27.8 kmh 29.84 in1010.5 mb - 0.00 in0.0 mm 0.00 in0.0 mm
10:35 AM 59.8°F15.4°C 44.1°F6.7°C 56% 8.1 mph WSW13.0 kmh WSW 11.5 mph18.5 kmh 29.84 in1010.5 mb - 0.00 in0.0 mm 0.00 in0.0 mm
10:40 AM 60.2°F15.7°C 43.9°F6.6°C 55% 9.2 mph SW14.8 kmh SW 16.1 mph25.9 kmh 29.84 in1010.5 mb - 0.00 in0.0 mm 0.00 in0.0 mm
10:45 AM 60.4°F15.8°C 43.7°F6.5°C 54% 10.4 mph SW16.7 kmh SW 16.1 mph25.9 kmh 29.84 in1010.5 mb - 0.00 in0.0 mm 0.00 in0.0 mm
10:50 AM 60.0°F15.6°C 43.8°F6.6°C 55% 6.9 mph W11.1 kmh W 11.5 mph18.5 kmh 29.84 in1010.5 mb - 0.00 in0.0 mm 0.00 in0.0 mm
10:55 AM 60.0°F15.6°C 44.2°F6.8°C 56% 10.4 mph WSW16.7 kmh WSW 16.1 mph25.9 kmh 29.85 in1010.8 mb - 0.00 in0.0 mm 0.00 in0.0 mm
11:00 AM 60.1°F15.6°C 43.8°F6.6°C 55% 8.1 mph SW13.0 kmh SW 12.7 mph20.4 kmh 29.84 in1010.5 mb - 0.00 in0.0 mm 0.00 in0.0 mm
11:10 AM 60.7°F15.9°C 44.4°F6.9°C 55% 12.7 mph SW20.4 kmh SW 18.4 mph29.6 kmh 29.85 in1010.8 mb - 0.00 in0.0 mm 0.00 in0.0 mm
11:15 AM 60.7°F15.9°C 44.4°F6.9°C 55% 10.4 mph SW16.7 kmh SW 16.1 mph25.9 kmh 29.84 in1010.5 mb - 0.00 in0.0 mm 0.00 in0.0 mm
11:20 AM 60.6°F15.9°C 44.3°F6.8°C 55% 11.5 mph SW18.5 kmh SW 18.4 mph29.6 kmh 29.84 in1010.5 mb - 0.00 in0.0 mm 0.00 in0.0 mm
11:25 AM 60.5°F15.8°C 44.2°F6.8°C 55% 10.4 mph SW16.7 kmh SW 18.4 mph29.6 kmh 29.84 in1010.5 mb - 0.00 in0.0 mm 0.00 in0.0 mm
11:30 AM 60.4°F15.8°C 44.2°F6.8°C 55% 12.7 mph SW20.4 kmh SW 19.6 mph31.5 kmh 29.84 in1010.5 mb - 0.00 in0.0 mm 0.00 in0.0 mm
11:35 AM 60.0°F15.6°C 44.2°F6.8°C 56% 10.4 mph SW16.7 kmh SW 17.3 mph27.8 kmh 29.84 in1010.5 mb - 0.00 in0.0 mm 0.00 in0.0 mm
11:40 AM 60.4°F15.8°C 44.2°F6.8°C 55% 12.7 mph SW20.4 kmh SW 18.4 mph29.6 kmh 29.84 in1010.5 mb - 0.00 in0.0 mm 0.00 in0.0 mm
11:45 AM 60.6°F15.9°C 44.3°F6.8°C 55% 9.2 mph SW14.8 kmh SW 13.8 mph22.2 kmh 29.84 in1010.5 mb - 0.00 in0.0 mm 0.00 in0.0 mm
11:50 AM 61.1°F16.2°C 44.8°F7.1°C 55% 9.2 mph SW14.8 kmh SW 12.7 mph20.4 kmh 29.84 in1010.5 mb - 0.00 in0.0 mm 0.00 in0.0 mm
11:55 AM 61.5°F16.4°C 44.7°F7.1°C 54% 9.2 mph SW14.8 kmh SW 16.1 mph25.9 kmh 29.84 in1010.5 mb - 0.00 in0.0 mm 0.00 in0.0 mm
12:00 PM 61.2°F16.2°C 44.4°F6.9°C 54% 11.5 mph SW18.5 kmh SW 17.3 mph27.8 kmh 29.84 in1010.5 mb - 0.00 in0.0 mm 0.00 in0.0 mm
12:10 PM 61.0°F16.1°C 44.2°F6.8°C 54% 10.4 mph SW16.7 kmh SW 16.1 mph25.9 kmh 29.83 in1010.2 mb - 0.00 in0.0 mm 0.00 in0.0 mm
12:15 PM 60.2°F15.7°C 43.5°F6.4°C 54% 11.5 mph SW18.5 kmh SW 16.1 mph25.9 kmh 29.84 in1010.5 mb - 0.00 in0.0 mm 0.00 in0.0 mm
12:20 PM 59.8°F15.4°C 44.0°F6.7°C 56% 10.4 mph SW16.7 kmh SW 19.6 mph31.5 kmh 29.83 in1010.2 mb - 0.00 in0.0 mm 0.00 in0.0 mm
12:25 PM 60.0°F15.6°C 43.8°F6.6°C 55% 12.7 mph SW20.4 kmh SW 19.6 mph31.5 kmh 29.83 in1010.2 mb - 0.00 in0.0 mm 0.00 in0.0 mm
12:30 PM 59.7°F15.4°C 43.5°F6.4°C 55% 9.2 mph SW14.8 kmh SW 15.0 mph24.1 kmh 29.83 in1010.2 mb - 0.00 in0.0 mm 0.00 in0.0 mm
12:35 PM 59.7°F15.4°C 43.5°F6.4°C 55% 9.2 mph SW14.8 kmh SW 13.8 mph22.2 kmh 29.83 in1010.2 mb - 0.00 in0.0 mm 0.00 in0.0 mm
12:40 PM 59.7°F15.4°C 43.5°F6.4°C 55% 10.4 mph SW16.7 kmh SW 17.3 mph27.8 kmh 29.83 in1010.2 mb - 0.00 in0.0 mm 0.00 in0.0 mm
12:45 PM 59.8°F15.4°C 43.2°F6.2°C 54% 11.5 mph SW18.5 kmh SW 18.4 mph29.6 kmh 29.83 in1010.2 mb - 0.00 in0.0 mm 0.00 in0.0 mm
12:50 PM 60.2°F15.7°C 43.9°F6.6°C 55% 9.2 mph SW14.8 kmh SW 13.8 mph22.2 kmh 29.83 in1010.2 mb - 0.00 in0.0 mm 0.00 in0.0 mm
12:55 PM 60.4°F15.8°C 43.7°F6.5°C 54% 9.2 mph WSW14.8 kmh WSW 16.1 mph25.9 kmh 29.83 in1010.2 mb - 0.00 in0.0 mm 0.00 in0.0 mm
01:00 PM 60.2°F15.7°C 43.0°F6.1°C 53% 12.7 mph WSW20.4 kmh WSW 17.3 mph27.8 kmh 29.82 in1009.8 mb - 0.00 in0.0 mm 0.00 in0.0 mm
01:10 PM 60.9°F16.1°C 43.1°F6.2°C 52% 10.4 mph SW16.7 kmh SW 16.1 mph25.9 kmh 29.82 in1009.8 mb - 0.00 in0.0 mm 0.00 in0.0 mm
01:15 PM 60.9°F16.1°C 43.6°F6.4°C 53% 10.4 mph SW16.7 kmh SW 18.4 mph29.6 kmh 29.82 in1009.8 mb - 0.00 in0.0 mm 0.00 in0.0 mm
01:20 PM 61.0°F16.1°C 44.2°F6.8°C 54% 10.4 mph SW16.7 kmh SW 16.1 mph25.9 kmh 29.82 in1009.8 mb - 0.00 in0.0 mm 0.00 in0.0 mm
01:25 PM 61.1°F16.2°C 43.8°F6.6°C 53% 11.5 mph SW18.5 kmh SW 18.4 mph29.6 kmh 29.81 in1009.5 mb - 0.00 in0.0 mm 0.00 in0.0 mm
01:30 PM 61.6°F16.4°C 43.8°F6.6°C 52% 10.4 mph WSW16.7 kmh WSW 19.6 mph31.5 kmh 29.81 in1009.5 mb - 0.00 in0.0 mm 0.00 in0.0 mm
01:35 PM 62.3°F16.8°C 44.4°F6.9°C 52% 9.2 mph WSW14.8 kmh WSW 19.6 mph31.5 kmh 29.81 in1009.5 mb - 0.00 in0.0 mm 0.00 in0.0 mm
01:40 PM 62.4°F16.9°C 44.0°F6.7°C 51% 13.8 mph SW22.2 kmh SW 27.6 mph44.4 kmh 29.81 in1009.5 mb - 0.00 in0.0 mm 0.00 in0.0 mm
01:45 PM 62.5°F16.9°C 43.6°F6.4°C 50% 12.7 mph SW20.4 kmh SW 18.4 mph29.6 kmh 29.81 in1009.5 mb - 0.00 in0.0 mm 0.00 in0.0 mm
01:50 PM 62.6°F17.0°C 43.7°F6.5°C 50% 10.4 mph SW16.7 kmh SW 19.6 mph31.5 kmh 29.81 in1009.5 mb - 0.00 in0.0 mm 0.00 in0.0 mm
01:55 PM 62.5°F16.9°C 43.6°F6.4°C 50% 12.7 mph SW20.4 kmh SW 16.1 mph25.9 kmh 29.80 in1009.1 mb - 0.00 in0.0 mm 0.00 in0.0 mm
02:00 PM 62.1°F16.7°C 43.7°F6.5°C 51% 11.5 mph SW18.5 kmh SW 16.1 mph25.9 kmh 29.80 in1009.1 mb - 0.00 in0.0 mm 0.00 in0.0 mm
02:10 PM 62.0°F16.7°C 43.7°F6.5°C 51% 12.7 mph WSW20.4 kmh WSW 19.6 mph31.5 kmh 29.80 in1009.1 mb - 0.00 in0.0 mm 0.00 in0.0 mm
02:15 PM 62.3°F16.8°C 44.0°F6.7°C 51% 11.5 mph WSW18.5 kmh WSW 17.3 mph27.8 kmh 29.79 in1008.8 mb - 0.00 in0.0 mm 0.00 in0.0 mm
02:20 PM 62.8°F17.1°C 43.9°F6.6°C 50% 10.4 mph SW16.7 kmh SW 19.6 mph31.5 kmh 29.79 in1008.8 mb - 0.00 in0.0 mm 0.00 in0.0 mm
02:25 PM 62.6°F17.0°C 43.7°F6.5°C 50% 11.5 mph SW18.5 kmh SW 18.4 mph29.6 kmh 29.79 in1008.8 mb - 0.00 in0.0 mm 0.00 in0.0 mm
02:30 PM 62.4°F16.9°C 44.0°F6.7°C 51% 9.2 mph W14.8 kmh W 11.5 mph18.5 kmh 29.79 in1008.8 mb - 0.00 in0.0 mm 0.00 in0.0 mm
02:35 PM 62.6°F17.0°C 44.2°F6.8°C 51% 11.5 mph SW18.5 kmh SW 19.6 mph31.5 kmh 29.78 in1008.5 mb - 0.00 in0.0 mm 0.00 in0.0 mm
02:40 PM 62.5°F16.9°C 44.1°F6.7°C 51% 11.5 mph SW18.5 kmh SW 18.4 mph29.6 kmh 29.78 in1008.5 mb - 0.00 in0.0 mm 0.00 in0.0 mm
02:45 PM 62.5°F16.9°C 44.1°F6.7°C 51% 10.4 mph WSW16.7 kmh WSW 15.0 mph24.1 kmh 29.78 in1008.5 mb - 0.00 in0.0 mm 0.00 in0.0 mm
02:50 PM 62.5°F16.9°C 43.6°F6.4°C 50% 10.4 mph WSW16.7 kmh WSW 18.4 mph29.6 kmh 29.78 in1008.5 mb - 0.00 in0.0 mm 0.00 in0.0 mm
02:55 PM 62.4°F16.9°C 43.5°F6.4°C 50% 8.1 mph WSW13.0 kmh WSW 13.8 mph22.2 kmh 29.78 in1008.5 mb - 0.00 in0.0 mm 0.00 in0.0 mm
03:00 PM 62.2°F16.8°C 43.9°F6.6°C 51% 11.5 mph WSW18.5 kmh WSW 27.6 mph44.4 kmh 29.78 in1008.5 mb - 0.00 in0.0 mm 0.00 in0.0 mm
03:10 PM 61.6°F16.4°C 43.8°F6.6°C 52% 12.7 mph WSW20.4 kmh WSW 20.7 mph33.3 kmh 29.77 in1008.1 mb - 0.00 in0.0 mm 0.00 in0.0 mm
03:15 PM 61.7°F16.5°C 43.9°F6.6°C 52% 12.7 mph WSW20.4 kmh WSW 17.3 mph27.8 kmh 29.77 in1008.1 mb - 0.00 in0.0 mm 0.00 in0.0 mm
03:20 PM 61.4°F16.3°C 43.6°F6.4°C 52% 11.5 mph SW18.5 kmh SW 19.6 mph31.5 kmh 29.77 in1008.1 mb - 0.00 in0.0 mm 0.00 in0.0 mm
03:25 PM 61.3°F16.3°C 43.5°F6.4°C 52% 12.7 mph SW20.4 kmh SW 18.4 mph29.6 kmh 29.77 in1008.1 mb - 0.00 in0.0 mm 0.00 in0.0 mm
03:30 PM 60.9°F16.1°C 43.7°F6.5°C 53% 13.8 mph SW22.2 kmh SW 20.7 mph33.3 kmh 29.77 in1008.1 mb - 0.00 in0.0 mm 0.00 in0.0 mm
03:35 PM 60.5°F15.8°C 43.8°F6.6°C 54% 12.7 mph SW20.4 kmh SW 19.6 mph31.5 kmh 29.77 in1008.1 mb - 0.00 in0.0 mm 0.00 in0.0 mm
03:40 PM 60.1°F15.6°C 43.4°F6.3°C 54% 11.5 mph SW18.5 kmh SW 23.0 mph37.0 kmh 29.77 in1008.1 mb - 0.00 in0.0 mm 0.00 in0.0 mm
03:45 PM 59.9°F15.5°C 43.6°F6.4°C 55% 13.8 mph WSW22.2 kmh WSW 21.9 mph35.2 kmh 29.77 in1008.1 mb - 0.00 in0.0 mm 0.00 in0.0 mm
03:50 PM 59.6°F15.3°C 43.4°F6.3°C 55% 12.7 mph SW20.4 kmh SW 17.3 mph27.8 kmh 29.76 in1007.8 mb - 0.00 in0.0 mm 0.00 in0.0 mm
03:55 PM 59.3°F15.2°C 43.6°F6.4°C 56% 16.1 mph WSW25.9 kmh WSW 26.5 mph42.6 kmh 29.76 in1007.8 mb - 0.00 in0.0 mm 0.00 in0.0 mm
04:00 PM 59.1°F15.1°C 43.8°F6.6°C 57% 11.5 mph SW18.5 kmh SW 19.6 mph31.5 kmh 29.76 in1007.8 mb - 0.00 in0.0 mm 0.00 in0.0 mm
04:10 PM 58.8°F14.9°C 43.6°F6.4°C 57% 11.5 mph SW18.5 kmh SW 20.7 mph33.3 kmh 29.76 in1007.8 mb - 0.00 in0.0 mm 0.00 in0.0 mm
04:15 PM 58.6°F14.8°C 43.4°F6.3°C 57% 10.4 mph SW16.7 kmh SW 12.7 mph20.4 kmh 29.76 in1007.8 mb - 0.00 in0.0 mm 0.00 in0.0 mm
04:20 PM 58.4°F14.7°C 43.6°F6.4°C 58% 10.4 mph SW16.7 kmh SW 17.3 mph27.8 kmh 29.75 in1007.5 mb - 0.00 in0.0 mm 0.00 in0.0 mm
04:25 PM 58.1°F14.5°C 43.4°F6.3°C 58% 10.4 mph SW16.7 kmh SW 15.0 mph24.1 kmh 29.76 in1007.8 mb - 0.00 in0.0 mm 0.00 in0.0 mm
04:30 PM 57.8°F14.3°C 43.1°F6.2°C 58% 11.5 mph WSW18.5 kmh WSW 18.4 mph29.6 kmh 29.75 in1007.5 mb - 0.00 in0.0 mm 0.00 in0.0 mm
04:35 PM 57.5°F14.2°C 42.9°F6.1°C 58% 11.5 mph WSW18.5 kmh WSW 17.3 mph27.8 kmh 29.75 in1007.5 mb - 0.00 in0.0 mm 0.00 in0.0 mm
04:40 PM 57.3°F14.1°C 42.6°F5.9°C 58% 15.0 mph WSW24.1 kmh WSW 20.7 mph33.3 kmh 29.75 in1007.5 mb - 0.00 in0.0 mm 0.00 in0.0 mm
04:45 PM 57.1°F13.9°C 42.4°F5.8°C 58% 12.7 mph SW20.4 kmh SW 26.5 mph42.6 kmh 29.75 in1007.5 mb - 0.00 in0.0 mm 0.00 in0.0 mm
04:50 PM 56.9°F13.8°C 42.7°F5.9°C 59% 13.8 mph WSW22.2 kmh WSW 21.9 mph35.2 kmh 29.75 in1007.5 mb - 0.00 in0.0 mm 0.00 in0.0 mm
04:55 PM 56.7°F13.7°C 42.9°F6.1°C 60% 10.4 mph SW16.7 kmh SW 19.6 mph31.5 kmh 29.75 in1007.5 mb - 0.00 in0.0 mm 0.00 in0.0 mm
05:00 PM 56.4°F13.6°C 42.7°F5.9°C 60% 12.7 mph SW20.4 kmh SW 18.4 mph29.6 kmh 29.75 in1007.5 mb - 0.00 in0.0 mm 0.00 in0.0 mm
05:10 PM 56.1°F13.4°C 42.8°F6.0°C 61% 11.5 mph SW18.5 kmh SW 20.7 mph33.3 kmh 29.75 in1007.5 mb - 0.00 in0.0 mm 0.00 in0.0 mm
05:15 PM 56.0°F13.3°C 42.7°F5.9°C 61% 11.5 mph SW18.5 kmh SW 20.7 mph33.3 kmh 29.75 in1007.5 mb - 0.00 in0.0 mm 0.00 in0.0 mm
05:20 PM 55.9°F13.3°C 42.6°F5.9°C 61% 9.2 mph SW14.8 kmh SW 15.0 mph24.1 kmh 29.75 in1007.5 mb - 0.00 in0.0 mm 0.00 in0.0 mm
05:25 PM 55.7°F13.2°C 42.9°F6.1°C 62% 11.5 mph SW18.5 kmh SW 19.6 mph31.5 kmh 29.75 in1007.5 mb - 0.00 in0.0 mm 0.00 in0.0 mm
05:30 PM 55.6°F13.1°C 42.8°F6.0°C 62% 10.4 mph SW16.7 kmh SW 19.6 mph31.5 kmh 29.75 in1007.5 mb - 0.00 in0.0 mm 0.00 in0.0 mm
05:35 PM 55.3°F12.9°C 42.5°F5.8°C 62% 11.5 mph SW18.5 kmh SW 19.6 mph31.5 kmh 29.75 in1007.5 mb - 0.00 in0.0 mm 0.00 in0.0 mm
05:40 PM 55.2°F12.9°C 42.8°F6.0°C 63% 12.7 mph SW20.4 kmh SW 13.8 mph22.2 kmh 29.75 in1007.5 mb - 0.00 in0.0 mm 0.00 in0.0 mm
05:45 PM 55.1°F12.8°C 42.7°F5.9°C 63% 10.4 mph WSW16.7 kmh WSW 20.7 mph33.3 kmh 29.74 in1007.1 mb - 0.00 in0.0 mm 0.00 in0.0 mm
05:50 PM 55.0°F12.8°C 42.6°F5.9°C 63% 13.8 mph WSW22.2 kmh WSW 21.9 mph35.2 kmh 29.74 in1007.1 mb - 0.00 in0.0 mm 0.00 in0.0 mm
05:55 PM 55.2°F12.9°C 42.4°F5.8°C 62% 12.7 mph WSW20.4 kmh WSW 16.1 mph25.9 kmh 29.74 in1007.1 mb - 0.00 in0.0 mm 0.00 in0.0 mm
06:00 PM 55.1°F12.8°C 42.7°F5.9°C 63% 11.5 mph WSW18.5 kmh WSW 19.6 mph31.5 kmh 29.74 in1007.1 mb - 0.00 in0.0 mm 0.00 in0.0 mm
06:10 PM 54.9°F12.7°C 42.5°F5.8°C 63% 9.2 mph WSW14.8 kmh WSW 12.7 mph20.4 kmh 29.75 in1007.5 mb - 0.00 in0.0 mm 0.00 in0.0 mm
06:15 PM 54.7°F12.6°C 42.4°F5.8°C 63% 10.4 mph WSW16.7 kmh WSW 13.8 mph22.2 kmh 29.75 in1007.5 mb - 0.00 in0.0 mm 0.00 in0.0 mm
06:20 PM 54.6°F12.6°C 42.3°F5.7°C 63% 11.5 mph SW18.5 kmh SW 15.0 mph24.1 kmh 29.74 in1007.1 mb - 0.00 in0.0 mm 0.00 in0.0 mm
06:25 PM 54.5°F12.5°C 42.2°F5.7°C 63% 9.2 mph WSW14.8 kmh WSW 13.8 mph22.2 kmh 29.74 in1007.1 mb - 0.00 in0.0 mm 0.00 in0.0 mm
06:30 PM 54.4°F12.4°C 42.5°F5.8°C 64% 11.5 mph SW18.5 kmh SW 12.7 mph20.4 kmh 29.74 in1007.1 mb - 0.00 in0.0 mm 0.00 in0.0 mm
06:35 PM 54.4°F12.4°C 42.1°F5.6°C 63% 8.1 mph SW13.0 kmh SW 13.8 mph22.2 kmh 29.74 in1007.1 mb - 0.00 in0.0 mm 0.00 in0.0 mm
06:40 PM 54.4°F12.4°C 42.1°F5.6°C 63% 9.2 mph SW14.8 kmh SW 16.1 mph25.9 kmh 29.73 in1006.8 mb - 0.00 in0.0 mm 0.00 in0.0 mm
06:45 PM 54.4°F12.4°C 42.1°F5.6°C 63% 10.4 mph WSW16.7 kmh WSW 17.3 mph27.8 kmh 29.73 in1006.8 mb - 0.00 in0.0 mm 0.00 in0.0 mm
06:50 PM 54.4°F12.4°C 41.7°F5.4°C 62% 9.2 mph WSW14.8 kmh WSW 18.4 mph29.6 kmh 29.73 in1006.8 mb - 0.00 in0.0 mm 0.00 in0.0 mm
06:55 PM 54.7°F12.6°C 41.9°F5.5°C 62% 9.2 mph W14.8 kmh W 12.7 mph20.4 kmh 29.73 in1006.8 mb - 0.00 in0.0 mm 0.00 in0.0 mm
07:00 PM 54.5°F12.5°C 42.2°F5.7°C 63% 10.4 mph SW16.7 kmh SW 19.6 mph31.5 kmh 29.72 in1006.4 mb - 0.00 in0.0 mm 0.00 in0.0 mm
07:10 PM 54.3°F12.4°C 42.4°F5.8°C 64% 12.7 mph SW20.4 kmh SW 21.9 mph35.2 kmh 29.71 in1006.1 mb - 0.00 in0.0 mm 0.00 in0.0 mm
07:15 PM 54.5°F12.5°C 42.2°F5.7°C 63% 11.5 mph SW18.5 kmh SW 19.6 mph31.5 kmh 29.71 in1006.1 mb - 0.00 in0.0 mm 0.00 in0.0 mm
07:20 PM 54.5°F12.5°C 42.2°F5.7°C 63% 11.5 mph WSW18.5 kmh WSW 20.7 mph33.3 kmh 29.71 in1006.1 mb - 0.00 in0.0 mm 0.00 in0.0 mm
07:25 PM 54.5°F12.5°C 42.2°F5.7°C 63% 13.8 mph SW22.2 kmh SW 17.3 mph27.8 kmh 29.71 in1006.1 mb - 0.00 in0.0 mm 0.00 in0.0 mm
07:30 PM 54.3°F12.4°C 42.0°F5.6°C 63% 13.8 mph SW22.2 kmh SW 19.6 mph31.5 kmh 29.71 in1006.1 mb - 0.00 in0.0 mm 0.00 in0.0 mm
07:35 PM 54.3°F12.4°C 41.9°F5.5°C 63% 15.0 mph SW24.1 kmh SW 20.7 mph33.3 kmh 29.71 in1006.1 mb - 0.00 in0.0 mm 0.00 in0.0 mm
07:40 PM 54.5°F12.5°C 41.8°F5.4°C 62% 18.4 mph SW29.6 kmh SW 23.0 mph37.0 kmh 29.71 in1006.1 mb - 0.00 in0.0 mm 0.00 in0.0 mm
07:45 PM 54.5°F12.5°C 41.8°F5.4°C 62% 15.0 mph SW24.1 kmh SW 19.6 mph31.5 kmh 29.71 in1006.1 mb - 0.00 in0.0 mm 0.00 in0.0 mm
07:50 PM 54.3°F12.4°C 42.0°F5.6°C 63% 13.8 mph SW22.2 kmh SW 21.9 mph35.2 kmh 29.70 in1005.8 mb - 0.00 in0.0 mm 0.00 in0.0 mm
07:55 PM 54.2°F12.3°C 42.2°F5.7°C 64% 16.1 mph SW25.9 kmh SW 21.9 mph35.2 kmh 29.70 in1005.8 mb - 0.00 in0.0 mm 0.00 in0.0 mm
08:00 PM 54.1°F12.3°C 42.2°F5.7°C 64% 8.1 mph W13.0 kmh W 23.0 mph37.0 kmh 29.70 in1005.8 mb - 0.00 in0.0 mm 0.00 in0.0 mm
08:10 PM 54.1°F12.3°C 42.2°F5.7°C 64% 11.5 mph WSW18.5 kmh WSW 18.4 mph29.6 kmh 29.71 in1006.1 mb - 0.00 in0.0 mm 0.00 in0.0 mm
08:15 PM 54.1°F12.3°C 42.2°F5.7°C 64% 12.7 mph WSW20.4 kmh WSW 21.9 mph35.2 kmh 29.70 in1005.8 mb - 0.00 in0.0 mm 0.00 in0.0 mm
08:20 PM 54.2°F12.3°C 42.3°F5.7°C 64% 12.7 mph SW20.4 kmh SW 18.4 mph29.6 kmh 29.70 in1005.8 mb - 0.00 in0.0 mm 0.00 in0.0 mm
08:25 PM 54.2°F12.3°C 42.3°F5.7°C 64% 13.8 mph SW22.2 kmh SW 24.2 mph38.9 kmh 29.70 in1005.8 mb - 0.00 in0.0 mm 0.00 in0.0 mm
08:30 PM 54.4°F12.4°C 42.1°F5.6°C 63% 13.8 mph SW22.2 kmh SW 19.6 mph31.5 kmh 29.70 in1005.8 mb - 0.00 in0.0 mm 0.00 in0.0 mm
08:35 PM 54.4°F12.4°C 42.1°F5.6°C 63% 10.4 mph SW16.7 kmh SW 18.4 mph29.6 kmh 29.70 in1005.8 mb - 0.00 in0.0 mm 0.00 in0.0 mm
08:40 PM 54.3°F12.4°C 42.4°F5.8°C 64% 9.2 mph SW14.8 kmh SW 12.7 mph20.4 kmh 29.70 in1005.8 mb - 0.00 in0.0 mm 0.00 in0.0 mm
08:45 PM 54.1°F12.3°C 42.2°F5.7°C 64% 11.5 mph SW18.5 kmh SW 21.9 mph35.2 kmh 29.70 in1005.8 mb - 0.00 in0.0 mm 0.00 in0.0 mm
08:50 PM 54.2°F12.3°C 42.3°F5.7°C 64% 11.5 mph SW18.5 kmh SW 24.2 mph38.9 kmh 29.70 in1005.8 mb - 0.00 in0.0 mm 0.00 in0.0 mm
08:55 PM 54.1°F12.3°C 42.2°F5.7°C 64% 10.4 mph WSW16.7 kmh WSW 18.4 mph29.6 kmh 29.70 in1005.8 mb - 0.00 in0.0 mm 0.00 in0.0 mm
09:00 PM 54.2°F12.3°C 42.3°F5.7°C 64% 8.1 mph SW13.0 kmh SW 10.4 mph16.7 kmh 29.69 in1005.4 mb - 0.00 in0.0 mm 0.00 in0.0 mm
09:10 PM 54.2°F12.3°C 42.3°F5.7°C 64% 10.4 mph SW16.7 kmh SW 16.1 mph25.9 kmh 29.70 in1005.8 mb - 0.00 in0.0 mm 0.00 in0.0 mm
09:15 PM 54.2°F12.3°C 42.3°F5.7°C 64% 11.5 mph SW18.5 kmh SW 18.4 mph29.6 kmh 29.69 in1005.4 mb - 0.00 in0.0 mm 0.00 in0.0 mm
09:20 PM 54.2°F12.3°C 42.3°F5.7°C 64% 12.7 mph SW20.4 kmh SW 18.4 mph29.6 kmh 29.69 in1005.4 mb - 0.00 in0.0 mm 0.00 in0.0 mm
09:25 PM 54.2°F12.3°C 42.3°F5.7°C 64% 11.5 mph WSW18.5 kmh WSW 15.0 mph24.1 kmh 29.68 in1005.1 mb - 0.00 in0.0 mm 0.00 in0.0 mm
09:30 PM 54.3°F12.4°C 42.4°F5.8°C 64% 11.5 mph SW18.5 kmh SW 16.1 mph25.9 kmh 29.68 in1005.1 mb - 0.00 in0.0 mm 0.00 in0.0 mm
09:35 PM 54.2°F12.3°C 42.3°F5.7°C 64% 13.8 mph WSW22.2 kmh WSW 24.2 mph38.9 kmh 29.68 in1005.1 mb - 0.00 in0.0 mm 0.00 in0.0 mm
09:40 PM 54.3°F12.4°C 42.4°F5.8°C 64% 12.7 mph SW20.4 kmh SW 19.6 mph31.5 kmh 29.68 in1005.1 mb - 0.00 in0.0 mm 0.00 in0.0 mm
09:45 PM 54.3°F12.4°C 42.4°F5.8°C 64% 15.0 mph SW24.1 kmh SW 21.9 mph35.2 kmh 29.68 in1005.1 mb - 0.00 in0.0 mm 0.00 in0.0 mm
09:50 PM 54.3°F12.4°C 42.4°F5.8°C 64% 11.5 mph SW18.5 kmh SW 15.0 mph24.1 kmh 29.68 in1005.1 mb - 0.00 in0.0 mm 0.00 in0.0 mm
09:55 PM 54.2°F12.3°C 42.3°F5.7°C 64% 12.7 mph SW20.4 kmh SW 19.6 mph31.5 kmh 29.67 in1004.7 mb - 0.00 in0.0 mm 0.00 in0.0 mm
10:00 PM 54.3°F12.4°C 42.3°F5.7°C 64% 15.0 mph SW24.1 kmh SW 23.0 mph37.0 kmh 29.67 in1004.7 mb - 0.00 in0.0 mm 0.00 in0.0 mm
10:10 PM 54.3°F12.4°C 42.4°F5.8°C 64% 13.8 mph SW22.2 kmh SW 26.5 mph42.6 kmh 29.67 in1004.7 mb - 0.00 in0.0 mm 0.00 in0.0 mm
10:15 PM 54.3°F12.4°C 42.4°F5.8°C 64% 12.7 mph SW20.4 kmh SW 25.3 mph40.7 kmh 29.67 in1004.7 mb - 0.00 in0.0 mm 0.00 in0.0 mm
10:20 PM 54.5°F12.5°C 42.1°F5.6°C 63% 19.6 mph SW31.5 kmh SW 32.2 mph51.8 kmh 29.66 in1004.4 mb - 0.00 in0.0 mm 0.00 in0.0 mm
10:25 PM 54.5°F12.5°C 42.5°F5.8°C 64% 12.7 mph WSW20.4 kmh WSW 16.1 mph25.9 kmh 29.67 in1004.7 mb - 0.00 in0.0 mm 0.00 in0.0 mm
10:30 PM 54.3°F12.4°C 42.8°F6.0°C 65% 13.8 mph SW22.2 kmh SW 19.6 mph31.5 kmh 29.67 in1004.7 mb - 0.00 in0.0 mm 0.00 in0.0 mm
10:35 PM 54.3°F12.4°C 42.8°F6.0°C 65% 12.7 mph WSW20.4 kmh WSW 19.6 mph31.5 kmh 29.67 in1004.7 mb - 0.00 in0.0 mm 0.00 in0.0 mm
10:40 PM 54.2°F12.3°C 42.7°F5.9°C 65% 10.4 mph WSW16.7 kmh WSW 19.6 mph31.5 kmh 29.67 in1004.7 mb - 0.00 in0.0 mm 0.00 in0.0 mm
10:45 PM 54.2°F12.3°C 42.7°F5.9°C 65% 11.5 mph SW18.5 kmh SW 17.3 mph27.8 kmh 29.67 in1004.7 mb - 0.00 in0.0 mm 0.00 in0.0 mm
10:50 PM 54.4°F12.4°C 42.9°F6.1°C 65% 9.2 mph SW14.8 kmh SW 13.8 mph22.2 kmh 29.67 in1004.7 mb - 0.00 in0.0 mm 0.00 in0.0 mm
10:55 PM 54.3°F12.4°C 42.8°F6.0°C 65% 11.5 mph SW18.5 kmh SW 19.6 mph31.5 kmh 29.66 in1004.4 mb - 0.00 in0.0 mm 0.00 in0.0 mm
11:00 PM 54.2°F12.3°C 42.7°F5.9°C 65% 12.7 mph SW20.4 kmh SW 19.6 mph31.5 kmh 29.66 in1004.4 mb - 0.00 in0.0 mm 0.00 in0.0 mm
11:10 PM 54.2°F12.3°C 42.7°F5.9°C 65% 13.8 mph SW22.2 kmh SW 25.3 mph40.7 kmh 29.66 in1004.4 mb - 0.00 in0.0 mm 0.00 in0.0 mm
11:15 PM 54.4°F12.4°C 42.9°F6.1°C 65% 12.7 mph SW20.4 kmh SW 19.6 mph31.5 kmh 29.66 in1004.4 mb - 0.00 in0.0 mm 0.00 in0.0 mm
11:20 PM 54.4°F12.4°C 42.9°F6.1°C 65% 10.4 mph WSW16.7 kmh WSW 17.3 mph27.8 kmh 29.66 in1004.4 mb - 0.00 in0.0 mm 0.00 in0.0 mm
11:25 PM 54.4°F12.4°C 42.9°F6.1°C 65% 9.2 mph SW14.8 kmh SW 19.6 mph31.5 kmh 29.65 in1004.1 mb - 0.00 in0.0 mm 0.00 in0.0 mm
11:30 PM 54.3°F12.4°C 42.8°F6.0°C 65% 9.2 mph WSW14.8 kmh WSW 12.7 mph20.4 kmh 29.66 in1004.4 mb - 0.00 in0.0 mm 0.00 in0.0 mm
11:35 PM 54.4°F12.4°C 42.8°F6.0°C 65% 11.5 mph SW18.5 kmh SW 21.9 mph35.2 kmh 29.66 in1004.4 mb - 0.00 in0.0 mm 0.00 in0.0 mm
11:40 PM 54.5°F12.5°C 42.6°F5.9°C 64% 9.2 mph WSW14.8 kmh WSW 13.8 mph22.2 kmh 29.66 in1004.4 mb - 0.00 in0.0 mm 0.00 in0.0 mm
11:45 PM 54.6°F12.6°C 42.6°F5.9°C 64% 10.4 mph WSW16.7 kmh WSW 16.1 mph25.9 kmh 29.66 in1004.4 mb - 0.00 in0.0 mm 0.00 in0.0 mm
11:50 PM 54.8°F12.7°C 42.4°F5.8°C 63% 11.5 mph WSW18.5 kmh WSW 18.4 mph29.6 kmh 29.66 in1004.4 mb - 0.00 in0.0 mm 0.00 in0.0 mm
11:55 PM 54.9°F12.7°C 42.5°F5.8°C 63% 8.1 mph SW13.0 kmh SW 15.0 mph24.1 kmh 29.66 in1004.4 mb - 0.00 in0.0 mm 0.00 in0.0 mm